A- A+ FrançaisEnglishEspañol中国

Services sur Internet Soldes sur Internet Des idées de cadeaux Météo Météo aéro

La météo à : Autours de vous Tarbes-Lourdes-PyrénéesPontoise-Cormeilles-En-VexinChateauroux-Deols Paris-Orly

manche à air

La météo aéronautique pour les pilotes, la préparation du vol avec les METAR (METeorological Aerodrome Report, message d'observation des conditions météorologiques pour l'aviation) et Les TAF (Terminal Aerodrome Forecast : message de prévision à court terme des conditions météorologiques pour l'aviation). Et les autres ressources comme les VAC (Visual Approch Chart) et les NOTAM (Notice To Airman) pour préprer les vols.

Aéroport Old Crow (Canada) / OACI CYOC/ IATA YOC

L'altitude de l'aéroport Old Crow est de 251 m = 823 ft. Il est situé à proximité de Old Crow (Canada). La météo générale à 5 jours est disponible pour Old Crow situé à 0.2 km.

METAR de l'aéroport Old Crow - CYOC

CYOC 041700Z CCA 06004KT 35SM IC FEW012 FEW045 FEW220 M28/M31 A3056 RMK SF1SC1CI1 SF TR CI TR IC SLP390

Décodage du METAR de l'aéroport Old Crow (CA)

METAR émis par CYOC le lundi 4 novembre 2019 à 17:00 heure TU. Attention ce METAR est obsolète car il a été émis il y a 9 heure et 1 minutes.

La visibilité est de 56.3 km = 35 sm.

La température est de -28°C = -18 °F et le point rosée est de -31°C = -24 °F . Ce qui correspond à 75% d'humidité relative.

Le QNH est de 1035 hPa = 30.56 inHg

Vent de 4 kt = 7 km/h, orienté à 60°.

Nuages : Quelques nuages à 1200 ft = 370 mètres. Quelques nuages à 4500 ft = 1370 mètres. Quelques nuages à 22000 ft = 6710 mètres.

IC

RMK SF1SC1CI1 SF TR CI TR cristaux de glace SLP390

TAF de l'aéroport Old Crow - CYOC

CYOC 041542Z 0416/0502 VRB03KT P6SM FEW015 RMK NXT FCST BY 041800Z

CYOC 041542Z 0416/0502 VRB03KT P6SM quelques nuages à 015 remarques NXT trombe ST BY 041800Z

Aéroport à proximité de Old Crow

Météo générale à 5 jours à Old Crow (0.2 km)Aéroport Fort Mc Pherson (213 km)Aéroport Aklavik (215 km)Aéroport Arctic Village (248 km)Aéroport Fort Yukon (259 km)Aéroport Circle City (269 km)Aéroport Inuvik (278 km)

Vue aérienne de l'aéroport Old Crow

NOTAM de l'aéroport Old Crow

Les NOTAM sont fournis sans aucune garantie de leur actualité. Le pilote est le seul responsable de la vérification de sa validité avant de l'utiliser opérationnellement pour préparer un vol ou l'utiliser lors de sa navigation.

NOTAM Aerodrome flight information service (du vendredi 1er novembre 2019 à 22:00 au mardi 5 novembre 2019 à 02:00)

L0523/19 NOTAMN
Q) CZEG/QSFLC/IV/B/A/000/999/6734N13950W005
A) CYOC B) 1911012200 C) 1911050200
D) NOV 01-02 2200-0100, NOV 03-04 2300-0200
E) COMMUNITY AD RADIO STATION (CARS) CLSD.
CREATED: 31 Oct 2019 14:23:00
SOURCE: CYHQYNYX

Sources des données